Time;durP1;ratioP1;P1;durP2;ratioP2;P2;SDS_P1;SDS_P2;PMS_P1;PMS_P2;Temp;Humidity;BMP_temperature;BMP_pressure;BME280_temperature;BME280_humidity;BME280_pressure;Samples;Min_cycle;Max_cycle;Signal;HPM_P1;HPM_P2
2022/10/18 00:00:33;;;;;;;22.70;20.33;;;;;;;14.01;100.00;102474.19;5045281;28;20033;-81
2022/10/18 00:02:58;;;;;;;21.15;19.10;;;;;;;13.98;100.00;102463.13;5027500;28;20033;-81
2022/10/18 00:05:23;;;;;;;22.50;20.27;;;;;;;14.00;100.00;102471.69;5045471;28;20078;-82
2022/10/18 00:07:49;;;;;;;21.70;19.60;;;;;;;13.99;100.00;102470.88;5029840;28;20481;-81
2022/10/18 00:10:14;;;;;;;20.35;18.23;;;;;;;13.92;100.00;102463.53;5048477;28;20099;-81
2022/10/18 00:12:39;;;;;;;20.80;18.90;;;;;;;13.94;100.00;102475.56;5047731;28;20031;-80
2022/10/18 00:15:06;;;;;;;20.17;18.30;;;;;;;13.98;100.00;102476.16;5061324;28;20029;-81
2022/10/18 00:17:34;;;;;;;18.58;16.73;;;;;;;14.04;100.00;102488.78;5057520;28;20032;-81
2022/10/18 00:20:00;;;;;;;19.52;17.73;;;;;;;13.98;100.00;102481.38;5021267;28;20040;-81
2022/10/18 00:22:26;;;;;;;18.52;16.52;;;;;;;13.91;100.00;102472.31;5044230;28;20423;-81
2022/10/18 00:24:51;;;;;;;13.43;11.70;;;;;;;13.93;100.00;102465.22;5045276;28;20032;-81
2022/10/18 00:27:16;;;;;;;13.95;12.45;;;;;;;13.91;100.00;102472.31;5044987;28;20476;-81
2022/10/18 00:29:42;;;;;;;12.70;11.45;;;;;;;13.88;100.00;102477.72;5044876;28;20049;-81
2022/10/18 00:32:07;;;;;;;11.82;10.63;;;;;;;13.83;100.00;102465.03;5034573;28;20079;-81
2022/10/18 00:34:33;;;;;;;12.77;9.20;;;;;;;13.86;100.00;102474.41;5046253;28;20021;-81
2022/10/18 00:36:58;;;;;;;12.48;9.55;;;;;;;13.81;100.00;102469.50;5052839;28;20373;-80
2022/10/18 00:39:23;;;;;;;11.63;8.85;;;;;;;13.85;100.00;102491.00;5046437;28;20104;-81
2022/10/18 00:41:50;;;;;;;12.63;11.43;;;;;;;13.77;100.00;102496.75;5041364;28;20083;-81
2022/10/18 00:44:15;;;;;;;10.27;8.98;;;;;;;13.84;100.00;102503.22;5047311;28;20028;-82
2022/10/18 00:46:43;;;;;;;10.35;9.35;;;;;;;13.66;100.00;102489.66;5050249;28;20062;-80
2022/10/18 00:49:16;;;;;;;10.68;9.55;;;;;;;13.68;100.00;102464.31;5071196;23;20052;-81
2022/10/18 00:52:02;;;;;;;22.55;8.98;;;;;;;13.73;100.00;102479.63;5048677;28;20035;-81
2022/10/18 00:54:30;;;;;;;8.57;6.85;;;;;;;13.65;100.00;102474.97;5058224;28;20588;-81
2022/10/18 00:56:55;;;;;;;6.82;5.72;;;;;;;13.75;100.00;102483.81;5065134;28;20036;-81
2022/10/18 00:59:22;;;;;;;11.20;7.47;;;;;;;13.54;100.00;102459.22;5043052;28;20111;-81
2022/10/18 01:01:47;;;;;;;11.10;9.65;;;;;;;13.69;100.00;102492.03;5061154;28;20043;-82
2022/10/18 01:04:14;;;;;;;9.85;8.15;;;;;;;13.68;100.00;102498.19;5056575;28;20461;-81
2022/10/18 01:07:09;;;;;;;10.73;8.15;;;;;;;13.66;100.00;102489.66;5061170;28;20029;-81
2022/10/18 01:10:05;;;;;;;;;;;;;;;;;;;;;
2022/10/18 01:13:35;;;;;;;;;;;;;;;;;;;;;
2022/10/18 01:16:09;;;;;;;14.40;10.40;;;;;;;13.62;100.00;102508.22;5059694;28;20032;-80
2022/10/18 01:18:56;;;;;;;13.65;11.18;;;;;;;13.60;100.00;102510.94;5060874;28;20411;-80
2022/10/18 01:21:33;;;;;;;17.60;12.88;;;;;;;13.50;100.00;102489.84;5055823;28;20059;-80
2022/10/18 01:24:10;;;;;;;13.73;12.05;;;;;;;13.51;100.00;102508.94;5059852;28;20139;-80
2022/10/18 01:27:13;;;;;;;16.35;14.30;;;;;;;13.54;100.00;102516.56;5056613;28;20111;-80
2022/10/18 01:30:01;;;;;;;16.95;15.25;;;;;;;13.42;100.00;102501.72;5055654;28;20040;-82
2022/10/18 01:32:29;;;;;;;;;;;;;;;13.64;100.00;102507.16;5056262;28;20032;-80
2022/10/18 01:35:00;;;;;;;16.30;12.05;;;;;;;13.51;100.00;102506.34;5050783;28;20382;-80
2022/10/18 01:37:27;;;;;;;15.13;12.38;;;;;;;13.52;100.00;102505.38;5066014;28;20021;-81
2022/10/18 01:39:56;;;;;;;15.15;13.65;;;;;;;13.48;100.00;102511.78;5044792;28;20064;-80
2022/10/18 01:42:23;;;;;;;15.27;13.88;;;;;;;13.29;100.00;102492.13;5064562;28;20476;-80
2022/10/18 01:44:51;;;;;;;13.63;12.27;;;;;;;13.37;100.00;102493.41;5042766;28;20063;-81
2022/10/18 01:47:18;;;;;;;13.27;11.70;;;;;;;13.41;100.00;102495.69;5061090;28;20029;-80
2022/10/18 01:49:43;;;;;;;13.20;11.75;;;;;;;13.41;100.00;102490.47;5070219;28;20048;-81
2022/10/18 01:52:13;;;;;;;16.00;11.27;;;;;;;13.36;100.00;102479.53;5064279;28;20024;-80
2022/10/18 01:54:43;;;;;;;16.25;14.82;;;;;;;13.21;100.00;102467.53;5038146;28;20032;-81
2022/10/18 01:57:36;;;;;;;12.50;11.20;;;;;;;13.50;100.00;102505.50;5070361;28;20732;-81
2022/10/18 02:00:14;;;;;;;14.75;13.45;;;;;;;13.41;100.00;102500.06;5060167;28;20055;-80
2022/10/18 02:03:01;;;;;;;14.52;13.05;;;;;;;13.45;100.00;102506.75;5053249;28;20108;-80
2022/10/18 02:05:43;;;;;;;15.07;13.88;;;;;;;13.30;100.00;102498.16;5061068;28;20413;-81
2022/10/18 02:08:20;;;;;;;14.20;13.05;;;;;;;13.38;100.00;102505.50;5034917;28;20079;-80
2022/10/18 02:10:54;;;;;;;14.52;12.38;;;;;;;13.26;100.00;102492.34;5065093;28;20036;-81
2022/10/18 02:13:22;;;;;;;12.48;10.27;;;;;;;13.31;100.00;102504.25;5067381;28;20029;-83
2022/10/18 02:15:51;;;;;;;13.75;12.63;;;;;;;13.26;100.00;102502.75;5053610;28;20039;-81
2022/10/18 02:18:26;;;;;;;10.75;9.73;;;;;;;13.38;100.00;102508.09;5058000;28;20036;-80
2022/10/18 02:20:53;;;;;;;13.98;12.32;;;;;;;13.24;100.00;102499.41;5059568;28;20484;-80
2022/10/18 02:23:24;;;;;;;14.82;11.32;;;;;;;13.24;100.00;102491.59;5062757;28;20028;-80
2022/10/18 02:25:50;;;;;;;14.10;13.00;;;;;;;13.31;100.00;102504.25;5053135;28;20040;-81
2022/10/18 02:28:16;;;;;;;12.35;11.15;;;;;;;13.18;100.00;102473.72;5063116;28;20107;-81
2022/10/18 02:30:57;;;;;;;17.77;11.25;;;;;;;13.23;100.00;102497.75;5062049;28;20139;-80
2022/10/18 02:33:40;;;;;;;12.63;11.43;;;;;;;13.31;100.00;102483.38;5055399;28;20514;-80
2022/10/18 02:36:17;;;;;;;15.52;14.20;;;;;;;13.26;100.00;102488.91;5058653;28;20086;-80
2022/10/18 02:38:44;;;;;;;16.75;15.23;;;;;;;13.22;100.00;102490.88;5069698;28;20036;-80
2022/10/18 02:41:10;;;;;;;13.27;12.05;;;;;;;13.18;100.00;102478.94;5066465;28;20029;-83
2022/10/18 02:43:35;;;;;;;18.02;12.23;;;;;;;13.15;100.00;102483.53;5068549;28;20020;-81
2022/10/18 02:46:01;;;;;;;14.75;12.02;;;;;;;13.09;100.00;102479.56;5061326;28;20396;-80
2022/10/18 02:48:26;;;;;;;16.35;14.80;;;;;;;12.95;100.00;102471.81;5055156;28;20508;-81
2022/10/18 02:50:52;;;;;;;16.98;12.25;;;;;;;13.05;100.00;102474.66;5067280;28;20044;-80
2022/10/18 02:53:17;;;;;;;15.90;14.43;;;;;;;13.13;100.00;102494.06;5061706;28;20059;-82
2022/10/18 02:55:43;;;;;;;19.77;13.15;;;;;;;13.18;100.00;102502.38;5057356;28;20119;-80
2022/10/18 02:58:08;;;;;;;13.43;12.07;;;;;;;13.19;100.00;102517.09;5068207;28;20017;-80
2022/10/18 03:00:33;;;;;;;17.83;11.05;;;;;;;13.23;100.00;102529.00;5057196;28;20067;-81
2022/10/18 03:02:59;;;;;;;12.40;11.30;;;;;;;13.15;100.00;102510.41;5055913;28;20036;-81
2022/10/18 03:05:24;;;;;;;18.77;13.68;;;;;;;13.06;100.00;102495.38;5050102;28;20032;-80
2022/10/18 03:07:49;;;;;;;14.88;13.38;;;;;;;13.15;100.00;102510.41;5044521;28;20021;-81
2022/10/18 03:10:15;;;;;;;17.73;11.00;;;;;;;13.19;100.00;102519.72;5053866;28;20108;-80
2022/10/18 03:12:40;;;;;;;14.30;12.82;;;;;;;13.15;100.00;102515.63;5070179;28;20103;-80
2022/10/18 03:15:06;;;;;;;14.23;10.88;;;;;;;13.22;100.00;102527.34;5077652;28;20478;-80
2022/10/18 03:17:31;;;;;;;13.52;12.32;;;;;;;13.13;100.00;102517.50;5073534;28;20028;-80
2022/10/18 03:19:57;;;;;;;12.90;11.70;;;;;;;13.08;100.00;102503.94;5069431;28;20392;-80
2022/10/18 03:22:24;;;;;;;16.00;14.57;;;;;;;13.07;100.00;102520.47;5065279;28;20074;-80
2022/10/18 03:24:49;;;;;;;18.38;13.38;;;;;;;13.03;100.00;102517.25;5065736;28;20021;-82
2022/10/18 03:27:14;;;;;;;12.57;11.25;;;;;;;13.05;100.00;102514.56;5066135;28;20036;-80
2022/10/18 03:29:40;;;;;;;12.45;11.25;;;;;;;13.11;100.00;102516.75;5061424;28;20546;-80
2022/10/18 03:32:05;;;;;;;15.55;14.20;;;;;;;12.89;100.00;102499.06;5066814;28;20064;-80
2022/10/18 03:34:30;;;;;;;15.43;14.10;;;;;;;12.85;100.00;102492.41;5055831;28;20040;-81
2022/10/18 03:36:56;;;;;;;15.07;13.77;;;;;;;12.90;100.00;102492.97;5062150;28;20768;-81
2022/10/18 03:39:21;;;;;;;13.73;12.45;;;;;;;13.03;100.00;102506.00;5067218;28;20490;-81
2022/10/18 03:41:47;;;;;;;15.70;14.40;;;;;;;12.99;100.00;102509.75;5044965;28;20040;-80
2022/10/18 03:44:12;;;;;;;15.95;14.45;;;;;;;12.96;100.00;102504.72;5070370;28;20072;-80
2022/10/18 03:46:38;;;;;;;16.23;14.77;;;;;;;13.03;100.00;102526.84;5045883;28;20485;-81
2022/10/18 03:49:03;;;;;;;15.15;12.32;;;;;;;13.03;100.00;102511.22;5066444;28;20088;-81
2022/10/18 03:51:28;;;;;;;15.27;12.18;;;;;;;12.90;100.00;102492.97;5039874;28;20021;-81
2022/10/18 03:53:54;;;;;;;15.00;11.55;;;;;;;12.92;100.00;102483.25;5062367;28;20104;-80
2022/10/18 03:56:19;;;;;;;15.80;11.75;;;;;;;13.06;100.00;102513.63;5047858;28;20040;-80
2022/10/18 03:58:44;;;;;;;15.85;14.13;;;;;;;13.01;100.00;102518.28;5059625;28;20124;-80
2022/10/18 04:01:10;;;;;;;12.50;11.32;;;;;;;13.08;100.00;102524.78;5077452;28;20028;-81
2022/10/18 04:03:35;;;;;;;11.15;10.05;;;;;;;12.93;100.00;102494.50;5060113;28;20107;-80
2022/10/18 04:06:02;;;;;;;15.65;14.30;;;;;;;12.98;100.00;102508.06;5043354;28;20032;-81
2022/10/18 04:08:28;;;;;;;15.38;13.18;;;;;;;13.00;100.00;102508.81;5054461;28;20040;-80
2022/10/18 04:10:53;;;;;;;15.70;14.20;;;;;;;12.95;100.00;102497.84;5058352;28;20028;-82
2022/10/18 04:13:19;;;;;;;16.88;13.57;;;;;;;12.85;100.00;102476.78;5033053;28;20029;-80
2022/10/18 04:15:44;;;;;;;14.52;12.18;;;;;;;12.98;100.00;102492.44;5036895;28;20044;-80
2022/10/18 04:18:09;;;;;;;13.48;11.45;;;;;;;12.89;100.00;102477.41;5042280;28;20046;-80
2022/10/18 04:20:35;;;;;;;14.93;10.30;;;;;;;12.99;100.00;102504.53;5050179;28;20051;-80
2022/10/18 04:23:00;;;;;;;14.13;11.30;;;;;;;12.95;100.00;102503.06;5049255;28;20032;-80
2022/10/18 04:25:25;;;;;;;25.80;14.70;;;;;;;12.99;100.00;102509.75;5042206;28;20112;-80
2022/10/18 04:27:51;;;;;;;15.15;11.23;;;;;;;12.96;100.00;102504.72;5069347;28;20055;-80
2022/10/18 04:30:17;;;;;;;15.88;9.93;;;;;;;13.03;100.00;102509.44;5039817;28;20468;-81
2022/10/18 04:32:42;;;;;;;14.57;11.18;;;;;;;13.01;100.00;102513.06;5068935;28;20131;-81
2022/10/18 04:35:09;;;;;;;16.77;11.85;;;;;;;13.01;100.00;102515.69;5059881;28;20025;-80
2022/10/18 04:37:34;;;;;;;13.85;12.45;;;;;;;12.89;100.00;102495.63;5068883;28;20093;-81
2022/10/18 04:40:00;;;;;;;14.52;11.65;;;;;;;12.98;100.00;102518.50;5068515;28;20503;-80
2022/10/18 04:42:25;;;;;;;16.95;14.65;;;;;;;12.74;100.00;102498.31;5068812;28;20077;-80
2022/10/18 04:44:51;;;;;;;13.60;12.25;;;;;;;12.94;100.00;102517.84;5062997;28;20036;-81
2022/10/18 04:47:16;;;;;;;11.85;10.65;;;;;;;12.96;100.00;102521.22;5043504;28;20032;-81
2022/10/18 04:49:42;;;;;;;14.48;13.27;;;;;;;12.86;100.00;102525.34;5052721;28;20047;-81
2022/10/18 04:52:07;;;;;;;12.75;10.60;;;;;;;12.94;100.00;102527.44;5052352;28;20043;-83
2022/10/18 04:54:33;;;;;;;13.27;11.88;;;;;;;12.89;100.00;102521.69;5053336;28;20478;-83
2022/10/18 04:56:58;;;;;;;15.55;11.00;;;;;;;12.87;100.00;102520.97;5042764;28;20029;-82
2022/10/18 04:59:23;;;;;;;15.32;13.82;;;;;;;12.80;100.00;102511.88;5051962;28;20048;-83
2022/10/18 05:01:49;;;;;;;18.58;13.55;;;;;;;12.80;100.00;102527.50;5053362;28;20034;-82
2022/10/18 05:04:14;;;;;;;13.32;11.40;;;;;;;12.88;100.00;102527.84;5061632;28;20280;-82
2022/10/18 05:06:40;;;;;;;21.13;10.93;;;;;;;12.79;100.00;102523.19;5070097;28;20391;-82
2022/10/18 05:09:05;;;;;;;15.07;9.75;;;;;;;12.83;100.00;102529.88;5050724;28;20035;-82
2022/10/18 05:11:31;;;;;;;25.30;11.98;;;;;;;12.75;100.00;102528.63;5063049;28;20371;-83
2022/10/18 05:13:56;;;;;;;20.10;11.98;;;;;;;12.71;100.00;102521.94;5060584;28;20375;-83
2022/10/18 05:16:21;;;;;;;20.33;14.25;;;;;;;12.64;100.00;102520.66;5059949;28;20044;-83
2022/10/18 05:18:46;;;;;;;18.48;13.85;;;;;;;12.61;100.00;102531.25;5075789;28;20027;-82
2022/10/18 05:21:12;;;;;;;13.10;9.38;;;;;;;12.71;100.00;102537.53;5063334;28;20047;-82
2022/10/18 05:23:38;;;;;;;21.55;10.15;;;;;;;12.65;100.00;102527.53;5065047;28;20052;-82
2022/10/18 05:26:05;;;;;;;15.43;11.32;;;;;;;12.66;100.00;102531.78;5064643;28;20020;-83
2022/10/18 05:28:31;;;;;;;18.23;13.75;;;;;;;12.63;100.00;102539.81;5059379;28;20035;-82
2022/10/18 05:31:04;;;;;;;19.45;12.48;;;;;;;12.66;100.00;102539.59;5038353;28;20025;-82
2022/10/18 05:33:30;;;;;;;21.52;11.57;;;;;;;12.55;100.00;102525.59;5054060;28;20032;-82
2022/10/18 05:35:55;;;;;;;23.73;13.13;;;;;;;12.57;100.00;102539.38;5046567;28;20399;-82
2022/10/18 05:38:21;;;;;;;15.80;13.85;;;;;;;12.52;100.00;102526.63;5056632;28;20028;-82
2022/10/18 05:40:46;;;;;;;14.20;12.80;;;;;;;12.58;100.00;102547.06;5045108;28;20112;-82
2022/10/18 05:43:11;;;;;;;13.30;11.07;;;;;;;12.61;100.00;102553.84;5053634;28;20036;-82
2022/10/18 05:45:37;;;;;;;14.75;13.45;;;;;;;12.54;100.00;102548.19;5051313;28;20383;-82
2022/10/18 05:48:03;;;;;;;13.75;12.55;;;;;;;12.60;100.00;102544.34;5058017;28;111266;-82
2022/10/18 05:50:29;;;;;;;16.25;12.45;;;;;;;12.57;100.00;102549.78;5041471;28;20472;-82
2022/10/18 05:52:56;;;;;;;15.80;11.27;;;;;;;12.56;100.00;102559.34;5049066;28;20117;-83
2022/10/18 05:55:21;;;;;;;13.02;10.88;;;;;;;12.47;100.00;102546.91;5057061;28;20032;-82
2022/10/18 05:57:50;;;;;;;12.73;11.43;;;;;;;12.49;100.00;102550.22;5055040;28;20017;-82
2022/10/18 06:00:16;;;;;;;;;;;;;;;12.67;100.00;102562.13;5052108;28;20036;-82
2022/10/18 06:02:41;;;;;;;12.63;11.32;;;;;;;12.49;100.00;102569.28;5068969;28;19917;-83
2022/10/18 06:05:06;;;;;;;24.83;10.05;;;;;;;12.49;100.00;102577.09;5054987;28;20031;-82
2022/10/18 06:07:32;;;;;;;15.20;11.90;;;;;;;12.37;100.00;102569.22;5043950;28;20377;-82
2022/10/18 06:09:57;;;;;;;13.98;12.68;;;;;;;12.30;100.00;102567.91;5060724;28;20578;-81
2022/10/18 06:12:22;;;;;;;12.43;11.25;;;;;;;12.34;100.00;102572.00;5065993;28;20027;-81
2022/10/18 06:14:48;;;;;;;12.57;10.63;;;;;;;12.42;100.00;102582.78;5047910;28;20461;-82
2022/10/18 06:17:13;;;;;;;15.40;10.63;;;;;;;12.31;100.00;102570.41;5058238;28;20468;-81
2022/10/18 06:19:39;;;;;;;11.60;10.38;;;;;;;12.39;100.00;102577.78;5055948;28;20025;-82
2022/10/18 06:22:04;;;;;;;13.18;10.52;;;;;;;12.44;100.00;102580.91;5045323;28;20139;-81
2022/10/18 06:24:29;;;;;;;17.73;11.75;;;;;;;12.33;100.00;102588.53;5054255;28;20025;-81
2022/10/18 06:26:55;;;;;;;13.52;10.07;;;;;;;12.34;100.00;102578.06;5076269;28;20039;-81
2022/10/18 06:29:21;;;;;;;14.38;10.40;;;;;;;12.36;100.00;102588.34;5062972;28;20368;-81
2022/10/18 06:31:46;;;;;;;18.42;10.93;;;;;;;12.35;100.00;102592.72;5048771;28;20032;-81
2022/10/18 06:34:11;;;;;;;20.13;9.63;;;;;;;12.39;100.00;102614.22;5049338;28;20024;-82
2022/10/18 06:36:37;;;;;;;16.92;10.43;;;;;;;12.25;100.00;102606.38;5061014;28;20075;-81
2022/10/18 06:39:02;;;;;;;25.40;12.95;;;;;;;12.18;100.00;102617.16;5049680;28;20047;-81
2022/10/18 06:41:27;;;;;;;14.82;12.43;;;;;;;12.21;100.00;102617.00;5055713;28;20021;-81
2022/10/18 06:43:55;;;;;;;24.67;14.07;;;;;;;12.11;100.00;102608.06;5067568;28;20378;-81
2022/10/18 06:46:21;;;;;;;19.02;12.20;;;;;;;12.14;100.00;102615.66;5062328;28;20790;-81
2022/10/18 06:48:46;;;;;;;22.52;14.32;;;;;;;12.12;100.00;102622.72;5056622;28;20048;-81
2022/10/18 06:51:11;;;;;;;28.60;12.07;;;;;;;12.13;100.00;102614.00;5047177;28;20048;-82
2022/10/18 06:53:38;;;;;;;22.83;11.98;;;;;;;12.17;100.00;102620.69;5055308;28;20059;-81
2022/10/18 06:56:10;;;;;;;18.85;11.90;;;;;;;12.15;100.00;102625.13;5057800;28;20028;-81
2022/10/18 06:58:36;;;;;;;15.68;14.13;;;;;;;12.11;100.00;102636.66;5036846;28;20354;-81
2022/10/18 07:01:10;;;;;;;13.95;12.68;;;;;;;12.10;100.00;102645.41;5082165;28;20027;-81
2022/10/18 07:03:36;;;;;;;17.80;10.85;;;;;;;12.10;100.00;102645.41;5055156;28;20028;-81
2022/10/18 07:06:06;;;;;;;15.82;11.10;;;;;;;12.01;100.00;102648.53;5068186;28;20048;-82
2022/10/18 07:08:32;;;;;;;12.77;10.65;;;;;;;11.94;100.00;102649.81;5046943;28;20028;-82
2022/10/18 07:10:58;;;;;;;12.02;9.93;;;;;;;11.95;100.00;102657.53;5059084;28;20029;-82
2022/10/18 07:13:26;;;;;;;11.18;9.23;;;;;;;11.89;100.00;102652.69;5071607;28;20048;-82
2022/10/18 07:16:04;;;;;;;21.23;11.00;;;;;;;11.87;100.00;102653.69;5047673;28;20715;-82
2022/10/18 07:18:30;;;;;;;;;;;;;;;12.01;100.00;102666.72;5068897;28;20474;-82
2022/10/18 07:20:56;;;;;;;16.75;9.88;;;;;;;11.88;100.00;102655.38;5052045;28;19928;-82
2022/10/18 07:23:22;;;;;;;18.27;10.88;;;;;;;11.88;100.00;102665.78;5044249;28;20025;-82
2022/10/18 07:25:48;;;;;;;13.80;9.93;;;;;;;11.97;100.00;102680.84;5052410;28;20024;-82
2022/10/18 07:28:13;;;;;;;22.75;10.40;;;;;;;11.86;100.00;102662.41;5056278;28;20385;-82
2022/10/18 07:30:38;;;;;;;14.32;10.25;;;;;;;11.99;100.00;102679.00;5058682;28;20104;-81
2022/10/18 07:33:04;;;;;;;15.95;11.57;;;;;;;12.00;100.00;102675.47;5064393;28;20154;-82
2022/10/18 07:35:29;;;;;;;16.48;9.85;;;;;;;12.00;100.00;102674.63;5066441;28;20020;-82
2022/10/18 07:37:54;;;;;;;25.48;12.10;;;;;;;12.07;100.00;102684.59;5061802;28;20024;-82
2022/10/18 07:40:20;;;;;;;21.13;11.77;;;;;;;12.09;100.00;102700.09;5061950;28;20519;-82
2022/10/18 07:42:45;;;;;;;18.95;12.05;;;;;;;12.09;100.00;102695.72;5078521;28;20467;-82
2022/10/18 07:45:12;;;;;;;16.98;9.82;;;;;;;12.10;100.00;102692.22;5062217;28;20102;-82
2022/10/18 07:47:37;;;;;;;19.92;10.48;;;;;;;12.10;100.00;102684.41;5060781;28;20029;-81
2022/10/18 07:50:03;;;;;;;16.73;9.82;;;;;;;12.17;100.00;102701.34;5055085;28;20056;-82
2022/10/18 07:52:28;;;;;;;15.32;10.13;;;;;;;12.17;100.00;102709.13;5053784;28;20437;-82
2022/10/18 07:54:53;;;;;;;15.82;14.15;;;;;;;12.10;100.00;102707.81;5053944;28;20024;-82
2022/10/18 07:57:19;;;;;;;14.32;11.77;;;;;;;12.19;100.00;102715.06;5054231;28;20036;-81
2022/10/18 07:59:46;;;;;;;18.08;10.65;;;;;;;12.17;100.00;102719.53;5054127;28;20480;-81
2022/10/18 08:02:12;;;;;;;20.67;11.37;;;;;;;12.16;100.00;102712.66;5060500;28;20028;-81
2022/10/18 08:04:37;;;;;;;24.33;13.07;;;;;;;12.02;100.00;102707.41;5054698;28;20388;-82
2022/10/18 08:07:02;;;;;;;17.95;11.52;;;;;;;12.12;100.00;102725.94;5066119;28;20039;-82
2022/10/18 08:09:28;;;;;;;15.95;13.65;;;;;;;12.05;100.00;102715.06;5063325;28;20120;-82
2022/10/18 08:11:53;;;;;;;14.50;12.55;;;;;;;12.10;100.00;102718.22;5052886;28;20023;-82
2022/10/18 08:14:19;;;;;;;15.32;10.95;;;;;;;12.19;100.00;102727.25;5044658;28;20060;-81
2022/10/18 08:16:44;;;;;;;16.88;15.13;;;;;;;12.09;100.00;102719.13;5049143;28;20468;-82
2022/10/18 08:19:10;;;;;;;19.17;15.57;;;;;;;12.11;100.00;102730.31;5052907;28;20025;-82
2022/10/18 08:21:35;;;;;;;19.48;13.23;;;;;;;12.15;100.00;102730.94;5031531;28;20348;-82
2022/10/18 08:24:00;;;;;;;17.50;15.18;;;;;;;12.21;100.00;102730.59;5044054;28;20033;-82
2022/10/18 08:26:26;;;;;;;15.70;12.48;;;;;;;12.29;100.00;102733.59;5069609;28;20043;-81
2022/10/18 08:28:51;;;;;;;15.68;12.85;;;;;;;12.30;100.00;102726.63;5071533;28;20165;-82
2022/10/18 08:31:18;;;;;;;16.33;12.68;;;;;;;12.33;100.00;102739.44;5067971;28;20624;-82
2022/10/18 08:33:43;;;;;;;17.50;13.50;;;;;;;12.38;100.00;102753.03;5058047;28;20107;-81
2022/10/18 08:36:11;;;;;;;17.65;11.45;;;;;;;12.29;100.00;102756.19;5058756;28;20111;-81
2022/10/18 08:38:38;;;;;;;15.27;10.27;;;;;;;12.33;100.00;102757.66;5057666;28;20481;-81
2022/10/18 08:41:21;;;;;;;16.02;13.05;;;;;;;12.32;100.00;102763.78;5065747;28;20039;-81
2022/10/18 08:43:57;;;;;;;17.48;13.38;;;;;;;12.31;100.00;102762.13;5051100;28;20024;-81
2022/10/18 08:46:23;;;;;;;15.77;12.95;;;;;;;12.27;100.00;102748.44;5058922;28;20028;-81
2022/10/18 08:48:52;;;;;;;19.27;12.93;;;;;;;12.33;100.00;102750.72;5057484;28;20056;-81
2022/10/18 08:51:24;;;;;;;17.90;12.90;;;;;;;12.35;100.00;102756.66;5068900;28;20051;-81
2022/10/18 08:54:02;;;;;;;20.48;15.70;;;;;;;12.36;100.00;102754.88;5059571;28;20032;-81
2022/10/18 08:56:28;;;;;;;18.85;16.75;;;;;;;12.38;100.00;102747.81;5044512;28;20131;-81
2022/10/18 08:58:53;;;;;;;18.98;14.50;;;;;;;12.40;100.00;102745.97;5069531;28;20090;-81
2022/10/18 09:01:29;;;;;;;16.25;13.07;;;;;;;12.39;100.00;102744.31;5057342;28;20115;-81
2022/10/18 09:04:22;;;;;;;18.80;15.20;;;;;;;12.52;100.00;102750.47;5071454;28;20489;-81
2022/10/18 09:07:24;;;;;;;17.77;14.57;;;;;;;12.57;100.00;102752.81;5044168;28;20016;-82
2022/10/18 09:09:59;;;;;;;21.02;18.35;;;;;;;12.61;100.00;102755.09;5052907;28;20036;-81
2022/10/18 09:12:37;;;;;;;18.90;14.10;;;;;;;12.66;100.00;102754.84;5068414;28;20156;-81
2022/10/18 09:15:17;;;;;;;20.33;15.05;;;;;;;12.74;100.00;102745.66;5057304;28;20061;-81
2022/10/18 09:18:02;;;;;;;22.95;14.70;;;;;;;12.82;100.00;102746.97;5054773;28;20028;-81
2022/10/18 09:20:54;;;;;;;23.80;21.20;;;;;;;12.87;100.00;102744.91;5056877;28;20028;-81
2022/10/18 09:23:25;;;;;;;20.35;14.88;;;;;;;12.95;100.00;102764.34;5060357;28;20067;-81
2022/10/18 09:26:00;;;;;;;21.75;14.25;;;;;;;13.00;100.00;102761.47;5070460;28;20498;-81
2022/10/18 09:28:41;;;;;;;19.38;16.27;;;;;;;13.07;100.00;102751.50;5051146;28;20140;-81
2022/10/18 09:31:30;;;;;;;18.90;16.67;;;;;;;13.14;100.00;102752.81;5038881;28;20025;-81
2022/10/18 09:34:11;;;;;;;21.15;18.13;;;;;;;13.24;100.00;102759.16;5063837;28;20032;-81
2022/10/18 09:36:38;;;;;;;22.50;20.23;;;;;;;13.38;100.00;102771.34;5052849;28;20021;-81
2022/10/18 09:39:11;;;;;;;21.65;19.20;;;;;;;13.33;100.00;102752.53;5051678;28;20062;-81
2022/10/18 09:41:45;;;;;;;17.95;14.18;;;;;;;13.50;100.00;102760.97;5057834;28;20028;-82
2022/10/18 09:44:27;;;;;;;20.80;14.27;;;;;;;13.59;100.00;102754.34;5059049;28;20035;-81
2022/10/18 09:47:15;;;;;;;19.55;14.77;;;;;;;13.70;100.00;102757.06;5065943;28;20035;-81
2022/10/18 09:49:51;;;;;;;19.58;17.17;;;;;;;13.58;100.00;102752.66;5029676;28;20033;-82
2022/10/18 09:52:43;;;;;;;19.25;14.15;;;;;;;13.74;100.00;102769.00;5045096;28;20043;-81
2022/10/18 09:55:16;;;;;;;16.30;13.52;;;;;;;13.75;100.00;102743.75;5041882;28;20822;-82
2022/10/18 09:57:50;;;;;;;17.30;12.73;;;;;;;13.87;100.00;102757.78;5024367;28;20090;-81
2022/10/18 10:00:23;;;;;;;17.05;13.02;;;;;;;13.96;100.00;102767.63;5019328;28;20033;-81
2022/10/18 10:02:48;;;;;;;19.30;16.00;;;;;;;13.91;100.00;102767.09;5032416;28;20570;-81
2022/10/18 10:05:14;;;;;;;15.85;13.63;;;;;;;14.00;100.00;102774.31;5036204;28;20052;-81
2022/10/18 10:07:43;;;;;;;16.23;12.07;;;;;;;14.13;100.00;102785.63;5037838;28;20076;-81
2022/10/18 10:10:22;;;;;;;20.27;15.38;;;;;;;14.04;100.00;102781.00;5041265;28;20418;-81
2022/10/18 10:13:05;;;;;;;20.75;14.98;;;;;;;14.23;100.00;102786.69;5030956;28;20025;-81
2022/10/18 10:15:32;;;;;;;17.23;12.40;;;;;;;14.19;100.00;102773.94;5031064;28;20029;-81
2022/10/18 10:18:00;;;;;;;17.92;14.98;;;;;;;14.30;100.00;102793.19;5031700;28;20025;-81
2022/10/18 10:20:46;;;;;;;16.98;14.88;;;;;;;14.40;100.00;102792.59;5035864;28;20087;-81
2022/10/18 10:23:20;;;;;;;18.13;14.25;;;;;;;14.35;100.00;102780.66;5036844;28;20029;-81
2022/10/18 10:25:51;;;;;;;16.50;12.45;;;;;;;14.50;100.00;102798.88;5020119;28;20025;-81
2022/10/18 10:28:20;;;;;;;18.27;13.77;;;;;;;14.48;100.00;102795.53;5037636;28;20079;-81
2022/10/18 10:30:46;;;;;;;18.55;13.88;;;;;;;14.43;100.00;102787.16;5019927;28;20056;-81
2022/10/18 10:33:37;;;;;;;17.13;12.43;;;;;;;14.64;100.00;102796.19;5039624;28;20113;-81
2022/10/18 10:36:18;;;;;;;16.27;14.43;;;;;;;14.72;100.00;102799.09;5043192;28;20041;-81
2022/10/18 10:38:43;;;;;;;16.90;14.32;;;;;;;14.72;100.00;102804.34;5043278;28;20052;-82
2022/10/18 10:41:21;;;;;;;15.30;13.10;;;;;;;14.84;100.00;102813.94;5037424;28;20061;-81
2022/10/18 10:43:47;;;;;;;16.35;12.95;;;;;;;14.88;100.00;102809.34;5045840;28;20036;-81
2022/10/18 10:46:19;;;;;;;15.95;11.30;;;;;;;14.88;100.00;102796.28;5022253;28;20409;-81
2022/10/18 10:48:50;;;;;;;15.88;11.75;;;;;;;14.91;98.99;102792.63;5034159;28;20087;-81
2022/10/18 10:51:30;;;;;;;16.05;11.43;;;;;;;15.03;98.49;102818.78;5055019;28;20456;-81
2022/10/18 10:54:01;;;;;;;16.40;11.00;;;;;;;15.03;98.45;102812.72;5065587;28;20087;-81
2022/10/18 10:56:30;;;;;;;14.93;9.13;;;;;;;15.14;95.02;102821.47;5053368;28;20043;-82
2022/10/18 10:59:05;;;;;;;14.07;8.55;;;;;;;15.09;93.77;102809.69;5062505;28;20130;-81
2022/10/18 11:01:32;;;;;;;13.63;7.53;;;;;;;15.19;91.45;102815.06;5060254;28;20266;-81
2022/10/18 11:04:01;;;;;;;13.70;6.50;;;;;;;15.29;92.01;102824.78;5066219;28;20021;-81
2022/10/18 11:06:48;;;;;;;13.60;6.40;;;;;;;15.39;91.24;102820.59;5063284;28;20032;-81
2022/10/18 11:09:35;;;;;;;12.68;6.50;;;;;;;15.39;92.95;102815.38;5048419;28;20028;-81
2022/10/18 11:12:10;;;;;;;14.07;6.10;;;;;;;15.49;89.57;102819.97;5061660;28;20059;-81
2022/10/18 11:14:40;;;;;;;11.38;4.70;;;;;;;15.51;89.68;102813.66;5048816;28;20028;-81
2022/10/18 11:17:28;;;;;;;10.38;2.80;;;;;;;15.55;85.09;102819.53;5052279;28;20028;-82